TimeCDT,TemperatureF,Dew PointF,Humidity,Sea Level PressureIn,VisibilityMPH,Wind Direction,Wind SpeedMPH,Gust SpeedMPH,PrecipitationIn,Events,Conditions,WindDirDegrees,DateUTC
12:55 AM,51.8,35.6,54,30.23,10.0,ENE,5.8,-,N/A,,Overcast,60,2012-10-11 05:55:00
1:55 AM,51.8,35.6,54,30.23,10.0,ENE,6.9,-,N/A,,Mostly Cloudy,70,2012-10-11 06:55:00
2:15 AM,51.8,35.6,54,30.23,10.0,ENE,5.8,-,N/A,,Overcast,70,2012-10-11 07:15:00
2:55 AM,51.8,35.6,54,30.23,10.0,Variable,4.6,-,N/A,,Overcast,0,2012-10-11 07:55:00
3:15 AM,51.8,37.4,58,30.23,10.0,ENE,6.9,-,N/A,,Overcast,70,2012-10-11 08:15:00
3:35 AM,51.8,37.4,58,30.23,10.0,ENE,5.8,-,N/A,,Overcast,70,2012-10-11 08:35:00
3:55 AM,51.8,37.4,58,30.23,10.0,ENE,5.8,-,N/A,,Overcast,70,2012-10-11 08:55:00
4:55 AM,51.8,37.4,58,30.22,10.0,ENE,5.8,-,N/A,,Overcast,70,2012-10-11 09:55:00
5:55 AM,51.8,37.4,58,30.24,10.0,Variable,3.5,-,N/A,,Overcast,0,2012-10-11 10:55:00
6:55 AM,51.8,39.2,62,30.25,10.0,Variable,3.5,-,N/A,,Overcast,0,2012-10-11 11:55:00
7:55 AM,51.8,39.2,62,30.26,10.0,East,3.5,-,N/A,,Overcast,90,2012-10-11 12:55:00
8:55 AM,53.6,41.0,62,30.27,10.0,Variable,4.6,-,N/A,,Overcast,0,2012-10-11 13:55:00
9:55 AM,53.6,42.8,67,30.30,10.0,Calm,Calm,-,N/A,,Overcast,0,2012-10-11 14:55:00
10:55 AM,55.4,44.6,67,30.27,10.0,ENE,4.6,-,N/A,,Overcast,60,2012-10-11 15:55:00
11:55 AM,57.2,44.6,63,30.27,10.0,SSE,3.5,-,N/A,Rain,Light Rain,160,2012-10-11 16:55:00
12:55 PM,55.4,50.0,82,30.26,10.0,SE,3.5,-,N/A,,Overcast,140,2012-10-11 17:55:00
1:55 PM,57.2,50.0,77,30.24,10.0,East,3.5,-,N/A,,Overcast,100,2012-10-11 18:55:00
2:55 PM,60.8,51.8,72,30.22,10.0,Calm,Calm,-,N/A,,Overcast,0,2012-10-11 19:55:00
3:55 PM,60.8,51.8,72,30.21,10.0,Variable,5.8,-,N/A,,Overcast,0,2012-10-11 20:55:00
5:55 PM,57.2,55.4,94,30.20,10.0,Calm,Calm,-,N/A,,Overcast,0,2012-10-11 22:55:00
6:55 PM,57.2,55.4,94,30.19,10.0,Calm,Calm,-,N/A,,Overcast,0,2012-10-11 23:55:00
7:55 PM,57.2,55.4,94,30.20,10.0,Calm,Calm,-,N/A,,Overcast,0,2012-10-12 00:55:00
8:55 PM,57.2,55.4,94,30.22,10.0,NE,3.5,-,N/A,,Overcast,50,2012-10-12 01:55:00
9:55 PM,57.2,57.2,100,30.21,10.0,Calm,Calm,-,N/A,,Mostly Cloudy,0,2012-10-12 02:55:00
10:55 PM,57.2,57.2,100,30.20,10.0,Calm,Calm,-,N/A,,Mostly Cloudy,0,2012-10-12 03:55:00
11:55 PM,59.0,57.2,94,30.19,10.0,Calm,Calm,-,N/A,,Overcast,0,2012-10-12 04:55:00